Time;durP1;ratioP1;P1;durP2;ratioP2;P2;SDS_P1;SDS_P2;PMS_P1;PMS_P2;Temp;Humidity;BMP_temperature;BMP_pressure;BME280_temperature;BME280_humidity;BME280_pressure;Samples;Min_cycle;Max_cycle;Signal;HPM_P1;HPM_P2
2022/05/23 00:01:48;;;;;;;3.73;2.57;;;18.10;74.70;;;;;;5077133;28;20444;-45
2022/05/23 00:04:14;;;;;;;3.60;2.80;;;18.10;75.20;;;;;;5058879;28;20408;-46
2022/05/23 00:06:40;;;;;;;3.90;2.63;;;18.00;75.30;;;;;;5059237;28;20189;-45
2022/05/23 00:09:06;;;;;;;3.53;2.87;;;18.00;75.60;;;;;;5076912;28;20409;-45
2022/05/23 00:11:32;;;;;;;5.20;3.50;;;18.10;76.10;;;;;;5076413;28;20463;-45
2022/05/23 00:13:58;;;;;;;2.20;2.00;;;18.00;76.20;;;;;;5077074;28;20213;-45
2022/05/23 00:16:26;;;;;;;2.70;2.43;;;18.00;76.50;;;;;;5077947;28;20471;-46
2022/05/23 00:18:52;;;;;;;2.43;2.23;;;18.00;77.00;;;;;;5077082;28;20675;-45
2022/05/23 00:21:19;;;;;;;3.10;2.60;;;18.00;77.10;;;;;;5058924;28;20429;-45
2022/05/23 00:23:45;;;;;;;3.20;2.43;;;18.00;77.40;;;;;;5077333;28;20830;-46
2022/05/23 00:26:16;;;;;;;3.20;2.63;;;18.00;77.50;;;;;;5076799;28;20426;-46
2022/05/23 00:28:42;;;;;;;3.23;2.57;;;18.00;77.50;;;;;;5059875;28;20730;-46
2022/05/23 00:31:08;;;;;;;3.40;3.10;;;18.00;77.90;;;;;;5077460;28;20596;-45
2022/05/23 00:36:19;;;;;;;3.73;2.67;;;18.00;78.10;;;;;;5077023;28;20980;-45
2022/05/23 00:38:45;;;;;;;2.83;2.50;;;17.90;78.00;;;;;;5075808;28;20421;-45
2022/05/23 00:44:12;;;;;;;4.00;2.67;;;17.90;78.40;;;;;;5075890;28;20412;-45
2022/05/23 00:47:01;;;;;;;3.10;2.90;;;17.90;78.70;;;;;;5076221;28;20430;-45
2022/05/23 00:49:35;;;;;;;4.30;3.13;;;17.90;78.80;;;;;;5076200;28;20245;-45
2022/05/23 00:52:07;;;;;;;3.20;2.90;;;17.80;78.90;;;;;;5076358;28;20477;-46
2022/05/23 00:54:42;;;;;;;3.20;2.90;;;17.80;79.10;;;;;;5076646;28;20407;-45
2022/05/23 00:57:11;;;;;;;6.37;2.70;;;17.80;79.30;;;;;;5058920;28;20718;-45
2022/05/23 00:59:36;;;;;;;2.53;2.33;;;17.80;79.40;;;;;;5059587;28;20422;-45
2022/05/23 01:02:03;;;;;;;2.90;2.70;;;17.80;79.50;;;;;;5059124;28;20540;-45
2022/05/23 01:04:30;;;;;;;3.20;2.30;;;17.80;79.60;;;;;;5077069;28;20552;-45
2022/05/23 01:06:56;;;;;;;3.20;2.23;;;17.80;79.70;;;;;;5080116;28;20527;-45
2022/05/23 01:09:25;;;;;;;2.87;2.67;;;17.80;79.80;;;;;;5080130;28;20709;-45
2022/05/23 01:11:52;;;;;;;4.77;2.63;;;17.80;79.80;;;;;;5080352;28;20434;-46
2022/05/23 01:14:18;;;;;;;2.60;2.30;;;17.80;80.00;;;;;;5080099;28;20416;-46
2022/05/23 01:16:43;;;;;;;2.63;2.43;;;17.80;80.00;;;;;;5080626;28;20493;-46
2022/05/23 01:19:09;;;;;;;2.83;2.63;;;17.80;80.00;;;;;;5080301;28;20605;-46
2022/05/23 01:21:45;;;;;;;2.87;2.67;;;17.80;80.10;;;;;;5080328;28;20182;-45
2022/05/23 01:24:27;;;;;;;3.57;2.87;;;17.80;80.10;;;;;;5080622;28;20323;-46
2022/05/23 01:26:55;;;;;;;3.00;2.70;;;17.80;80.10;;;;;;5080617;28;20826;-45
2022/05/23 01:29:21;;;;;;;2.97;2.73;;;17.70;80.10;;;;;;5080032;28;20418;-46
2022/05/23 01:31:47;;;;;;;2.93;2.27;;;17.70;80.30;;;;;;5080031;28;20443;-45
2022/05/23 01:34:18;;;;;;;2.47;2.27;;;17.70;80.60;;;;;;5080227;28;20288;-45
2022/05/23 01:36:44;;;;;;;3.83;2.70;;;17.70;80.90;;;;;;5062518;28;21006;-45
2022/05/23 01:39:10;;;;;;;3.60;2.63;;;17.60;81.00;;;;;;5080011;28;20408;-45
2022/05/23 01:41:35;;;;;;;3.23;2.83;;;17.60;81.30;;;;;;5080206;28;20645;-46
2022/05/23 01:44:01;;;;;;;2.80;2.30;;;17.60;81.40;;;;;;5062606;28;20167;-45
2022/05/23 01:46:27;;;;;;;2.83;2.53;;;17.60;81.40;;;;;;5079651;28;20183;-45
2022/05/23 01:48:52;;;;;;;2.60;2.40;;;17.60;81.40;;;;;;5079885;28;20173;-45
2022/05/23 01:51:18;;;;;;;2.70;2.50;;;17.60;81.50;;;;;;5079831;28;20246;-45
2022/05/23 01:53:45;;;;;;;3.17;2.30;;;17.60;81.50;;;;;;5079976;28;20186;-46
2022/05/23 01:56:11;;;;;;;2.80;2.60;;;17.60;81.40;;;;;;5079716;28;20466;-45
2022/05/23 02:01:21;;;;;;;3.23;2.43;;;17.60;81.40;;;;;;5079635;28;20512;-46
2022/05/23 02:03:48;;;;;;;2.20;2.00;;;17.60;81.40;;;;;;5079518;28;20419;-46
2022/05/23 02:06:14;;;;;;;2.40;2.20;;;17.60;81.40;;;;;;5079525;28;20190;-45
2022/05/23 02:08:39;;;;;;;6.90;2.57;;;17.60;81.40;;;;;;5079535;28;20425;-45
2022/05/23 02:11:06;;;;;;;3.10;2.80;;;17.60;81.50;;;;;;5079340;28;20191;-45
2022/05/23 02:13:34;;;;;;;5.67;2.70;;;17.50;81.60;;;;;;5079487;28;20174;-45
2022/05/23 02:16:00;;;;;;;2.53;2.07;;;17.50;81.90;;;;;;5079044;28;20486;-46
2022/05/23 02:18:26;;;;;;;2.80;2.47;;;17.50;81.90;;;;;;5078577;28;20404;-45
2022/05/23 02:20:52;;;;;;;3.07;2.73;;;17.50;82.10;;;;;;5078802;28;20436;-45
2022/05/23 02:23:17;;;;;;;2.57;2.37;;;17.50;82.10;;;;;;5078190;28;20407;-45
2022/05/23 02:25:43;;;;;;;2.80;2.50;;;17.50;82.20;;;;;;5071019;28;20194;-45
2022/05/23 02:28:09;;;;;;;3.10;2.37;;;17.50;82.20;;;;;;5060122;28;20585;-45
2022/05/23 02:30:34;;;;;;;3.50;2.43;;;17.50;82.60;;;;;;5057704;28;20187;-46
2022/05/23 02:33:00;;;;;;;2.83;2.53;;;17.50;82.70;;;;;;5071921;28;20634;-46
2022/05/23 02:35:25;;;;;;;3.53;2.60;;;17.50;82.90;;;;;;5076965;28;20222;-45
2022/05/23 02:37:51;;;;;;;3.87;2.57;;;17.50;83.00;;;;;;5078206;28;20568;-46
2022/05/23 02:40:17;;;;;;;2.90;2.57;;;17.50;83.00;;;;;;5078866;28;20180;-45
2022/05/23 02:42:43;;;;;;;2.53;2.33;;;17.50;82.90;;;;;;5078307;28;20174;-45
2022/05/23 02:45:09;;;;;;;2.77;2.57;;;17.50;82.70;;;;;;5078179;28;20460;-46
2022/05/23 02:47:34;;;;;;;4.37;2.40;;;17.50;82.40;;;;;;5077961;28;20417;-45
2022/05/23 02:50:00;;;;;;;3.10;2.43;;;17.50;82.50;;;;;;5078805;28;20847;-45
2022/05/23 02:52:26;;;;;;;3.00;2.70;;;17.50;82.30;;;;;;5060799;28;20252;-45
2022/05/23 02:54:53;;;;;;;2.90;2.50;;;17.50;82.30;;;;;;5078654;28;20181;-45
2022/05/23 02:57:19;;;;;;;3.40;2.20;;;17.50;82.30;;;;;;5078395;28;20605;-46
2022/05/23 02:59:45;;;;;;;3.70;2.60;;;17.50;82.40;;;;;;5078281;28;20413;-45
2022/05/23 03:04:55;;;;;;;3.10;2.40;;;17.50;81.90;;;;;;5076771;28;20247;-46
2022/05/23 03:07:20;;;;;;;2.70;2.50;;;17.50;81.20;;;;;;5077447;28;20408;-45
2022/05/23 03:09:46;;;;;;;4.10;3.23;;;17.50;80.60;;;;;;5077941;28;20173;-46
2022/05/23 03:12:12;;;;;;;2.87;2.60;;;17.40;80.90;;;;;;5077070;28;20569;-46
2022/05/23 03:14:38;;;;;;;5.80;3.43;;;17.40;80.30;;;;;;5076764;28;20185;-45
2022/05/23 03:17:05;;;;;;;3.80;2.70;;;17.30;79.70;;;;;;5076895;28;20473;-45
2022/05/23 03:19:30;;;;;;;7.23;2.97;;;17.30;80.00;;;;;;5077254;28;20434;-46
2022/05/23 03:27:39;;;;;;;4.23;2.70;;;17.20;79.40;;;;;;5023338;28;20429;-45
2022/05/23 03:30:06;;;;;;;2.30;2.10;;;17.20;79.80;;;;;;5056515;28;20433;-46
2022/05/23 03:32:32;;;;;;;3.33;2.40;;;17.20;79.60;;;;;;5049770;28;20226;-45
2022/05/23 03:34:57;;;;;;;2.73;2.30;;;17.20;79.10;;;;;;5077522;28;20405;-45
2022/05/23 03:37:24;;;;;;;4.33;2.10;;;17.20;79.80;;;;;;5077016;28;20201;-45
2022/05/23 03:39:50;;;;;;;2.67;2.47;;;17.20;80.10;;;;;;5065115;28;20600;-46
2022/05/23 03:42:15;;;;;;;5.23;3.33;;;17.30;80.10;;;;;;5069126;28;20430;-46
2022/05/23 03:44:41;;;;;;;2.40;2.20;;;17.30;80.00;;;;;;5057983;28;20410;-45
2022/05/23 03:47:07;;;;;;;4.10;2.50;;;17.40;79.80;;;;;;5056378;28;20170;-45
2022/05/23 03:49:33;;;;;;;3.50;3.20;;;17.50;79.80;;;;;;5056445;28;20185;-45
2022/05/23 03:51:59;;;;;;;2.23;2.03;;;17.60;79.60;;;;;;5056923;28;20182;-45
2022/05/23 03:54:26;;;;;;;3.30;3.00;;;17.60;79.40;;;;;;5040086;28;20480;-45
2022/05/23 03:56:51;;;;;;;3.53;2.53;;;17.70;79.60;;;;;;5057123;28;20491;-45
2022/05/23 03:59:17;;;;;;;5.30;3.10;;;17.70;79.40;;;;;;5056290;28;20895;-45
2022/05/23 04:01:43;;;;;;;3.27;2.73;;;17.80;78.90;;;;;;5060359;28;20230;-45
2022/05/23 04:04:08;;;;;;;3.13;2.83;;;17.70;78.60;;;;;;5077031;28;20367;-45
2022/05/23 04:06:38;;;;;;;2.90;2.30;;;17.80;79.20;;;;;;5077308;28;20183;-45
2022/05/23 04:09:04;;;;;;;3.30;3.00;;;17.70;79.00;;;;;;5077103;28;20211;-45
2022/05/23 04:11:29;;;;;;;2.53;2.33;;;17.80;79.30;;;;;;5076520;28;20427;-46
2022/05/23 04:13:55;;;;;;;3.00;2.70;;;17.80;79.10;;;;;;5076701;28;20200;-45
2022/05/23 04:16:21;;;;;;;5.30;3.20;;;17.80;78.70;;;;;;5075840;28;20303;-45
2022/05/23 04:18:46;;;;;;;3.73;2.80;;;17.80;78.60;;;;;;5076595;28;20509;-45
2022/05/23 04:21:12;;;;;;;3.67;3.03;;;17.80;79.30;;;;;;5076818;28;20178;-45
2022/05/23 04:23:38;;;;;;;4.20;3.10;;;17.70;80.10;;;;;;5075141;28;20561;-45
2022/05/23 04:26:07;;;;;;;3.70;2.60;;;17.60;80.40;;;;;;5074908;28;20187;-45
2022/05/23 04:28:33;;;;;;;4.00;2.80;;;17.60;80.60;;;;;;5058628;28;20724;-45
2022/05/23 04:30:59;;;;;;;3.53;2.80;;;17.50;80.90;;;;;;5075566;28;20493;-45
2022/05/23 04:36:09;;;;;;;4.13;2.40;;;17.50;82.80;;;;;;5075133;28;20482;-45
2022/05/23 04:38:35;;;;;;;6.50;3.23;;;17.40;84.00;;;;;;5075018;28;20706;-45
2022/05/23 04:41:01;;;;;;;6.07;3.40;;;17.40;85.10;;;;;;5077280;28;20251;-45
2022/05/23 04:43:27;;;;;;;7.03;3.50;;;17.40;87.60;;;;;;5061067;28;20443;-45
2022/05/23 04:45:52;;;;;;;7.97;4.30;;;17.40;90.00;;;;;;5079684;28;20183;-45
2022/05/23 04:51:02;;;;;;;4.83;3.30;;;17.40;90.50;;;;;;5078693;28;20186;-45
2022/05/23 04:53:28;;;;;;;3.27;2.97;;;17.40;91.40;;;;;;5078880;28;20417;-46
2022/05/23 04:55:54;;;;;;;5.27;4.23;;;17.40;91.60;;;;;;5079532;28;20209;-45
2022/05/23 04:58:20;;;;;;;5.40;3.60;;;17.50;92.00;;;;;;5079669;28;20477;-45
2022/05/23 05:00:45;;;;;;;5.00;2.90;;;17.50;92.20;;;;;;5078180;28;20179;-46
2022/05/23 05:03:12;;;;;;;3.73;3.13;;;17.50;92.40;;;;;;5078968;28;20171;-45
2022/05/23 05:05:37;;;;;;;3.53;2.83;;;17.50;92.50;;;;;;5078857;28;20260;-46
2022/05/23 05:08:04;;;;;;;9.40;3.53;;;17.60;92.60;;;;;;5078795;28;20881;-45
2022/05/23 05:10:30;;;;;;;3.70;2.97;;;17.60;92.90;;;;;;5078408;28;20227;-45
2022/05/23 05:12:56;;;;;;;3.77;2.70;;;17.60;92.80;;;;;;5078001;28;20508;-45
2022/05/23 05:15:24;;;;;;;3.63;2.80;;;17.60;92.90;;;;;;5076830;28;20182;-46
2022/05/23 05:17:50;;;;;;;4.67;2.90;;;17.70;93.20;;;;;;5056180;28;20483;-46
2022/05/23 05:20:18;;;;;;;3.33;2.67;;;17.70;93.30;;;;;;5076612;28;20498;-45
2022/05/23 05:22:44;;;;;;;4.40;2.60;;;17.80;93.50;;;;;;5075723;28;20174;-45
2022/05/23 05:25:10;;;;;;;3.20;2.90;;;17.80;93.60;;;;;;5055629;28;20428;-45
2022/05/23 05:27:36;;;;;;;3.30;2.57;;;17.90;93.80;;;;;;5072647;28;20409;-46
2022/05/23 05:30:03;;;;;;;3.87;3.00;;;17.90;93.90;;;;;;5073298;28;20832;-46
2022/05/23 05:32:58;;;;;;;4.10;3.07;;;17.90;93.80;;;;;;5073373;28;20237;-45
2022/05/23 05:35:27;;;;;;;4.00;3.33;;;17.90;93.90;;;;;;5073418;28;20416;-46
2022/05/23 05:38:30;;;;;;;3.53;2.90;;;17.90;94.20;;;;;;5073822;28;20521;-45
2022/05/23 05:41:03;;;;;;;5.20;3.30;;;17.90;94.40;;;;;;4976221;28;20568;-45
2022/05/23 05:43:32;;;;;;;3.60;3.00;;;17.90;94.20;;;;;;5061835;28;20484;-45
2022/05/23 05:46:05;;;;;;;6.20;3.50;;;18.00;94.30;;;;;;5073926;28;20431;-45
2022/05/23 05:48:31;;;;;;;6.47;3.70;;;17.90;94.80;;;;;;5074901;28;20767;-45
2022/05/23 05:50:57;;;;;;;4.17;3.30;;;17.70;94.90;;;;;;5075403;28;20556;-45
2022/05/23 05:53:28;;;;;;;5.00;4.47;;;17.60;95.10;;;;;;5055313;28;20412;-45
2022/05/23 05:55:53;;;;;;;4.07;3.63;;;17.60;95.50;;;;;;5072729;28;20997;-45
2022/05/23 05:58:19;;;;;;;4.80;3.83;;;17.60;95.70;;;;;;5054228;28;20423;-45
2022/05/23 06:00:45;;;;;;;4.17;3.63;;;17.70;95.80;;;;;;5061012;28;20877;-46
2022/05/23 06:03:11;;;;;;;7.17;3.60;;;17.90;95.50;;;;;;5070959;28;20830;-45
2022/05/23 06:11:23;;;;;;;5.13;3.73;;;18.10;94.70;;;;;;5074403;28;20185;-46
2022/05/23 06:13:53;;;;;;;5.00;3.80;;;18.60;94.50;;;;;;5077127;28;20412;-45
2022/05/23 06:16:19;;;;;;;7.60;4.20;;;18.50;94.30;;;;;;5073663;28;20523;-45
2022/05/23 06:18:45;;;;;;;4.97;4.20;;;18.60;94.30;;;;;;5073259;28;20843;-45
2022/05/23 06:21:12;;;;;;;7.07;4.00;;;18.50;94.70;;;;;;5071218;28;20444;-44
2022/05/23 06:23:39;;;;;;;4.20;3.90;;;18.40;95.00;;;;;;5055828;28;20429;-43
2022/05/23 06:26:04;;;;;;;4.20;3.67;;;18.40;94.60;;;;;;5054171;28;20438;-44
2022/05/23 06:28:30;;;;;;;4.77;4.37;;;18.50;94.60;;;;;;5052944;28;20411;-45
2022/05/23 06:30:57;;;;;;;8.17;4.23;;;18.60;94.50;;;;;;5054307;28;20593;-45
2022/05/23 06:33:24;;;;;;;4.47;4.07;;;18.70;94.30;;;;;;5036204;28;20638;-45
2022/05/23 06:35:50;;;;;;;8.43;5.00;;;18.80;94.20;;;;;;5054376;28;20477;-45
2022/05/23 06:38:16;;;;;;;4.40;3.87;;;18.90;94.20;;;;;;5054460;28;20418;-46
2022/05/23 06:40:42;;;;;;;7.53;4.20;;;19.00;94.30;;;;;;5054118;28;20428;-46
2022/05/23 06:43:08;;;;;;;4.67;4.27;;;19.10;94.00;;;;;;5055124;28;20186;-46
2022/05/23 06:45:34;;;;;;;7.10;4.87;;;19.20;93.80;;;;;;5054214;28;20443;-45
2022/05/23 06:47:59;;;;;;;5.40;4.17;;;19.00;93.80;;;;;;5053897;28;20288;-46
2022/05/23 06:50:25;;;;;;;4.50;4.10;;;18.90;94.10;;;;;;5053973;28;20261;-46
2022/05/23 06:52:51;;;;;;;5.47;4.33;;;18.90;94.20;;;;;;5055959;28;20188;-46
2022/05/23 06:55:17;;;;;;;7.90;5.00;;;19.00;94.10;;;;;;5054634;28;20448;-46
2022/05/23 06:57:43;;;;;;;5.17;4.57;;;19.10;94.00;;;;;;5055322;28;20193;-45
2022/05/23 07:00:09;;;;;;;5.63;4.13;;;19.20;93.90;;;;;;5054553;28;20210;-46
2022/05/23 07:02:36;;;;;;;4.70;4.10;;;19.40;93.80;;;;;;5064261;28;20418;-47
2022/05/23 07:13:15;;;;;;;4.43;4.00;;;20.10;92.30;;;;;;5069926;28;20533;-44
2022/05/23 07:15:46;;;;;;;3.80;3.50;;;20.30;91.70;;;;;;5056090;28;20594;-48
2022/05/23 07:18:16;;;;;;;4.90;4.50;;;20.40;91.50;;;;;;5056092;28;20182;-47
2022/05/23 07:20:42;;;;;;;5.63;4.00;;;20.60;91.00;;;;;;5054175;28;20461;-45
2022/05/23 07:23:08;;;;;;;3.80;3.50;;;20.70;90.70;;;;;;5055135;28;20450;-45
2022/05/23 07:25:34;;;;;;;3.50;3.20;;;20.80;90.30;;;;;;5063516;28;20496;-45
2022/05/23 07:27:59;;;;;;;6.87;3.97;;;21.00;90.50;;;;;;5063785;28;20432;-45
2022/05/23 07:30:25;;;;;;;4.00;3.47;;;21.20;90.50;;;;;;5038255;28;20191;-44
2022/05/23 07:32:50;;;;;;;4.10;3.80;;;21.50;90.10;;;;;;4996644;28;1187689;-45
2022/05/23 07:35:19;;;;;;;4.20;3.80;;;21.60;89.10;;;;;;5056030;28;20264;-45
2022/05/23 07:37:44;;;;;;;4.57;4.13;;;21.60;88.60;;;;;;5055408;28;20171;-46
2022/05/23 07:40:11;;;;;;;5.93;3.73;;;21.60;88.10;;;;;;5055524;28;20446;-46
2022/05/23 07:42:37;;;;;;;4.47;4.07;;;21.50;88.20;;;;;;5055546;28;20178;-45
2022/05/23 07:45:04;;;;;;;3.60;3.30;;;21.30;87.50;;;;;;5054766;28;20579;-45
2022/05/23 07:47:30;;;;;;;5.30;3.53;;;21.10;89.00;;;;;;5054906;28;20242;-45
2022/05/23 07:49:55;;;;;;;2.90;2.70;;;21.10;88.50;;;;;;5053300;28;20411;-46
2022/05/23 07:52:21;;;;;;;3.23;3.03;;;21.30;88.30;;;;;;5054354;28;20477;-44
2022/05/23 08:00:31;;;;;;;4.00;3.60;;;21.90;87.20;;;;;;5054088;28;20458;-43
2022/05/23 08:03:00;;;;;;;3.00;2.80;;;22.30;85.10;;;;;;5069007;28;20426;-46
2022/05/23 08:05:26;;;;;;;3.10;2.90;;;22.70;84.40;;;;;;5075072;28;20454;-45
2022/05/23 08:07:53;;;;;;;3.73;3.30;;;23.00;83.10;;;;;;5073143;28;20842;-48
2022/05/23 08:10:20;;;;;;;4.03;2.97;;;23.30;82.40;;;;;;5057420;28;20187;-46
2022/05/23 08:12:50;;;;;;;3.73;3.40;;;23.40;81.70;;;;;;5055341;28;20429;-46
2022/05/23 08:15:16;;;;;;;3.33;2.90;;;23.50;80.00;;;;;;5054163;28;20508;-47
2022/05/23 08:17:41;;;;;;;3.30;3.00;;;23.50;79.80;;;;;;5055399;28;20537;-44
2022/05/23 08:20:07;;;;;;;4.20;3.27;;;23.50;79.40;;;;;;5054333;28;20425;-44
2022/05/23 08:22:33;;;;;;;3.47;3.13;;;23.40;79.30;;;;;;5054008;28;20239;-46
2022/05/23 08:24:59;;;;;;;4.83;4.10;;;23.40;80.00;;;;;;5054285;28;20445;-44
2022/05/23 08:27:24;;;;;;;4.23;3.60;;;23.50;80.30;;;;;;5052818;28;20228;-46
2022/05/23 08:29:52;;;;;;;3.33;3.03;;;23.60;80.20;;;;;;5036247;28;20217;-46
2022/05/23 08:32:20;;;;;;;4.17;3.00;;;23.90;80.00;;;;;;5062368;28;20197;-49
2022/05/23 08:34:47;;;;;;;4.20;3.17;;;24.30;79.30;;;;;;5073086;28;20419;-49
2022/05/23 08:37:13;;;;;;;3.37;3.07;;;24.90;77.30;;;;;;5072924;28;20481;-49
2022/05/23 08:39:39;;;;;;;3.77;3.23;;;25.20;76.00;;;;;;5072526;28;20430;-49
2022/05/23 08:42:34;;;;;;;3.50;3.20;;;25.30;73.10;;;;;;5073109;28;21070;-51
2022/05/23 08:45:31;;;;;;;4.10;3.13;;;25.30;73.70;;;;;;5066735;28;20204;-47
2022/05/23 08:48:28;;;;;;;3.60;3.30;;;25.30;73.50;;;;;;5074704;28;20430;-50
2022/05/23 08:51:26;;;;;;;3.83;3.53;;;25.30;73.60;;;;;;5074646;28;20417;-50
2022/05/23 08:54:14;;;;;;;5.20;3.37;;;25.20;72.80;;;;;;5057950;28;20461;-48
2022/05/23 08:56:48;;;;;;;5.13;2.90;;;24.90;73.70;;;;;;5074925;28;20474;-49
2022/05/23 08:59:21;;;;;;;3.70;3.10;;;24.60;73.90;;;;;;5056590;28;20426;-50
2022/05/23 09:01:53;;;;;;;4.47;2.93;;;24.30;75.80;;;;;;5074210;28;20504;-49
2022/05/23 09:04:35;;;;;;;4.40;3.00;;;24.20;76.80;;;;;;5073367;28;20425;-52
2022/05/23 09:07:01;;;;;;;4.00;3.63;;;24.00;76.90;;;;;;5056406;28;20795;-49
2022/05/23 09:09:31;;;;;;;4.43;3.70;;;23.90;78.30;;;;;;5071567;28;20496;-48
2022/05/23 09:12:06;;;;;;;5.23;3.70;;;23.70;79.50;;;;;;5054958;28;20682;-51
2022/05/23 09:14:32;;;;;;;3.67;3.10;;;23.50;79.40;;;;;;5054599;28;20438;-48
2022/05/23 09:16:58;;;;;;;4.57;3.10;;;23.60;80.10;;;;;;5073135;28;20478;-47
2022/05/23 09:19:32;;;;;;;4.50;3.37;;;23.70;80.70;;;;;;5073369;28;20187;-49
2022/05/23 09:22:14;;;;;;;3.83;3.53;;;23.80;80.20;;;;;;5056548;28;20175;-48
2022/05/23 09:25:02;;;;;;;6.23;3.87;;;24.00;80.70;;;;;;5075822;28;20424;-47
2022/05/23 09:27:50;;;;;;;3.33;3.03;;;24.20;79.20;;;;;;5077728;28;20427;-51
2022/05/23 09:30:21;;;;;;;3.70;3.40;;;24.60;79.50;;;;;;5061500;28;20514;-47
2022/05/23 09:32:52;;;;;;;3.87;3.30;;;24.90;78.10;;;;;;5079722;28;20475;-48
2022/05/23 09:35:26;;;;;;;3.90;3.33;;;25.10;77.50;;;;;;5061336;28;20496;-48
2022/05/23 09:38:16;;;;;;;3.60;3.07;;;25.40;77.00;;;;;;5078987;28;20435;-51
2022/05/23 09:40:42;;;;;;;3.60;3.30;;;25.70;76.20;;;;;;5076160;28;20504;-47
2022/05/23 09:49:07;;;;;;;3.70;2.63;;;27.40;71.00;;;;;;5046093;28;20431;-48
2022/05/23 09:51:49;;;;;;;4.83;3.40;;;27.80;69.50;;;;;;5078279;28;20915;-46
2022/05/23 09:54:30;;;;;;;4.50;3.43;;;27.90;67.50;;;;;;5078482;28;20428;-48
2022/05/23 09:56:58;;;;;;;3.70;3.40;;;27.70;66.70;;;;;;5076222;28;20807;-50
2022/05/23 09:59:34;;;;;;;4.07;3.67;;;27.40;67.30;;;;;;5059809;28;20416;-49
2022/05/23 10:02:44;;;;;;;3.47;3.17;;;27.10;67.90;;;;;;5075911;28;20449;-48
2022/05/23 10:05:37;;;;;;;3.70;3.40;;;26.70;68.90;;;;;;5071976;28;20542;-50
2022/05/23 10:08:06;;;;;;;4.30;3.90;;;26.30;69.70;;;;;;5076075;28;20485;-49
2022/05/23 10:10:36;;;;;;;5.10;4.60;;;26.00;70.40;;;;;;5033551;28;20852;-46
2022/05/23 10:13:28;;;;;;;5.40;3.40;;;25.60;71.90;;;;;;5058234;28;20415;-46
2022/05/23 10:16:08;;;;;;;5.83;3.87;;;25.10;73.90;;;;;;5056454;28;20486;-45
2022/05/23 10:18:36;;;;;;;3.43;3.13;;;25.00;74.30;;;;;;5055147;28;20423;-48
2022/05/23 10:21:31;;;;;;;8.27;3.97;;;25.00;74.80;;;;;;5055813;28;20438;-45
2022/05/23 10:24:07;;;;;;;4.40;3.80;;;25.10;75.00;;;;;;5056828;28;20871;-46
2022/05/23 10:26:49;;;;;;;4.13;3.50;;;25.20;74.90;;;;;;5055416;28;20435;-46
2022/05/23 10:29:52;;;;;;;11.73;4.43;;;25.30;75.10;;;;;;5037373;28;20496;-45
2022/05/23 10:32:38;;;;;;;6.00;3.83;;;25.20;75.30;;;;;;5044473;28;20469;-45
2022/05/23 10:35:24;;;;;;;5.77;4.50;;;25.10;75.10;;;;;;5076545;28;20450;-45
2022/05/23 10:37:53;;;;;;;4.50;3.57;;;24.90;75.10;;;;;;5056903;28;20592;-46
2022/05/23 10:43:32;;;;;;;5.53;4.37;;;24.30;76.90;;;;;;5075621;28;20768;-45
2022/05/23 10:46:01;;;;;;;4.40;4.10;;;24.00;77.80;;;;;;5057304;28;20433;-46
2022/05/23 10:48:57;;;;;;;5.10;4.33;;;23.80;79.20;;;;;;5058530;28;20465;-44
2022/05/23 10:51:41;;;;;;;5.07;4.57;;;23.60;80.80;;;;;;5058414;28;20697;-46
2022/05/23 10:54:45;;;;;;;6.23;4.20;;;23.40;81.90;;;;;;5058607;28;20699;-48
2022/05/23 10:57:29;;;;;;;6.10;4.17;;;23.10;82.30;;;;;;5075703;28;20518;-45
2022/05/23 11:00:21;;;;;;;5.00;4.60;;;22.80;84.00;;;;;;5056936;28;20428;-44
2022/05/23 11:03:41;;;;;;;4.77;4.10;;;22.60;85.40;;;;;;5054676;28;20419;-46
2022/05/23 11:06:18;;;;;;;6.73;4.63;;;22.30;86.80;;;;;;4994589;28;20566;-45
2022/05/23 11:08:51;;;;;;;5.30;4.80;;;22.20;89.00;;;;;;5075984;28;20429;-49
2022/05/23 11:11:20;;;;;;;9.37;5.00;;;22.00;91.00;;;;;;5076219;28;20720;-45
2022/05/23 11:13:58;;;;;;;6.40;5.80;;;21.80;91.80;;;;;;5073492;28;20414;-58
2022/05/23 11:16:39;;;;;;;6.53;5.77;;;21.50;93.60;;;;;;5074383;28;20470;-48
2022/05/23 11:19:32;;;;;;;5.73;5.20;;;21.30;94.60;;;;;;5075362;28;20961;-47
2022/05/23 11:22:13;;;;;;;8.57;6.00;;;21.00;95.40;;;;;;5056342;28;20458;-52
2022/05/23 11:24:50;;;;;;;7.70;6.93;;;20.60;97.10;;;;;;5073701;28;20906;-54
2022/05/23 11:35:48;;;;;;;6.80;6.00;;;19.90;99.30;;;;;;5059031;28;20468;-56
2022/05/23 11:38:18;;;;;;;8.57;5.57;;;19.80;99.50;;;;;;5074725;28;20412;-51
2022/05/23 11:41:05;;;;;;;11.10;5.80;;;19.80;99.30;;;;;;5074880;28;20437;-46
2022/05/23 11:43:31;;;;;;;7.20;4.80;;;19.70;99.10;;;;;;5073526;28;20445;-46
2022/05/23 11:45:57;;;;;;;12.20;5.10;;;19.70;99.00;;;;;;5055808;28;20466;-47
2022/05/23 11:48:39;;;;;;;5.17;4.17;;;19.50;98.50;;;;;;5055926;28;20238;-46
2022/05/23 11:51:19;;;;;;;4.73;3.90;;;19.40;98.60;;;;;;5074194;28;20528;-49
2022/05/23 11:54:01;;;;;;;6.73;4.30;;;19.30;98.70;;;;;;5057424;28;20423;-47
2022/05/23 11:56:44;;;;;;;6.10;3.60;;;19.30;99.20;;;;;;5072457;28;20495;-47
2022/05/23 11:59:12;;;;;;;9.47;3.90;;;19.10;98.80;;;;;;5074358;28;20767;-46
2022/05/23 12:01:38;;;;;;;6.23;4.00;;;19.10;99.00;;;;;;5057191;28;20434;-47
2022/05/23 12:04:04;;;;;;;5.40;3.13;;;19.10;99.10;;;;;;5039372;28;20416;-47
2022/05/23 12:06:29;;;;;;;6.33;4.13;;;19.20;99.00;;;;;;5076074;28;20529;-47
2022/05/23 12:09:02;;;;;;;6.97;3.07;;;19.30;98.50;;;;;;5075120;28;20214;-48
2022/05/23 12:11:36;;;;;;;6.50;3.17;;;19.50;98.10;;;;;;5075396;28;20175;-47
2022/05/23 12:14:43;;;;;;;5.00;3.60;;;19.60;97.90;;;;;;5075305;28;20751;-46
2022/05/23 12:17:21;;;;;;;7.90;3.20;;;19.90;97.80;;;;;;5073656;28;20510;-46
2022/05/23 12:19:51;;;;;;;7.60;3.10;;;20.00;97.20;;;;;;5073117;28;20459;-47
2022/05/23 12:22:19;;;;;;;9.27;3.53;;;20.30;97.00;;;;;;5055924;28;20442;-46
2022/05/23 12:25:07;;;;;;;5.20;2.70;;;20.40;96.60;;;;;;5072525;28;20415;-46
2022/05/23 12:28:01;;;;;;;11.13;3.10;;;20.70;96.00;;;;;;5074050;28;20410;-47
2022/05/23 12:30:26;;;;;;;6.63;2.83;;;20.80;95.80;;;;;;5065328;28;20435;-48
2022/05/23 12:33:04;;;;;;;5.97;2.93;;;20.70;96.00;;;;;;5073809;28;20711;-46
2022/05/23 12:35:57;;;;;;;4.60;2.70;;;20.90;95.50;;;;;;5075832;28;20189;-46
2022/05/23 12:38:47;;;;;;;4.80;2.70;;;21.10;95.10;;;;;;5053950;28;20489;-47
2022/05/23 12:41:35;;;;;;;3.10;2.30;;;21.40;94.60;;;;;;5075855;28;20523;-47
2022/05/23 12:44:27;;;;;;;6.90;2.60;;;21.90;93.90;;;;;;5058807;28;20423;-47
2022/05/23 12:47:16;;;;;;;5.33;2.83;;;22.50;93.30;;;;;;5076162;28;20526;-46
2022/05/23 12:49:51;;;;;;;4.43;2.30;;;23.00;92.40;;;;;;5057950;28;20465;-45
2022/05/23 12:52:54;;;;;;;4.43;2.37;;;23.50;92.40;;;;;;5072205;28;20517;-46
2022/05/23 12:55:34;;;;;;;7.63;2.47;;;24.00;91.50;;;;;;5072886;28;20445;-46
2022/05/23 12:58:25;;;;;;;5.27;3.20;;;24.40;90.40;;;;;;5073755;28;20513;-46
2022/05/23 13:00:58;;;;;;;7.63;3.27;;;24.50;90.00;;;;;;5072575;28;20433;-47
2022/05/23 13:03:57;;;;;;;5.77;3.23;;;24.60;89.10;;;;;;5059992;28;20442;-46
2022/05/23 13:06:31;;;;;;;4.87;3.37;;;24.80;89.50;;;;;;5075218;28;20506;-46
2022/05/23 13:09:15;;;;;;;4.57;3.37;;;25.00;88.30;;;;;;5078145;28;20462;-48
2022/05/23 13:11:50;;;;;;;4.83;2.43;;;25.60;87.10;;;;;;5077922;28;20518;-46
2022/05/23 13:14:16;;;;;;;4.80;2.90;;;26.80;83.60;;;;;;5062106;28;20416;-49
2022/05/23 13:16:56;;;;;;;5.53;3.30;;;27.70;80.20;;;;;;5078056;28;20468;-49
2022/05/23 13:22:13;;;;;;;4.47;2.60;;;29.00;74.30;;;;;;5077264;28;20423;-46
2022/05/23 13:24:56;;;;;;;5.80;3.00;;;29.80;69.90;;;;;;5077364;28;20419;-48
2022/05/23 13:27:25;;;;;;;4.93;3.00;;;30.70;65.80;;;;;;5079152;28;20467;-46
2022/05/23 13:29:52;;;;;;;5.90;3.03;;;31.30;62.40;;;;;;5077819;28;20460;-47
2022/05/23 13:32:18;;;;;;;4.10;2.83;;;31.60;59.40;;;;;;5078335;28;20404;-47
2022/05/23 13:34:46;;;;;;;4.17;2.57;;;31.70;58.70;;;;;;5078397;28;20488;-46
2022/05/23 13:37:31;;;;;;;5.37;3.07;;;32.20;57.60;;;;;;5065069;28;20812;-47
2022/05/23 13:39:56;;;;;;;3.13;2.73;;;32.20;57.30;;;;;;5038843;28;20407;-51
2022/05/23 13:42:25;;;;;;;3.87;2.57;;;33.00;56.70;;;;;;5038376;28;20410;-48
2022/05/23 13:44:51;;;;;;;4.50;2.80;;;33.70;54.10;;;;;;5037949;28;20178;-48
2022/05/23 13:47:21;;;;;;;4.50;3.23;;;33.10;53.40;;;;;;5056854;28;20685;-48
2022/05/23 13:49:58;;;;;;;3.80;2.70;;;32.60;54.10;;;;;;5037239;28;20449;-47
2022/05/23 13:52:35;;;;;;;4.70;2.60;;;31.80;55.00;;;;;;5020105;28;20436;-47
2022/05/23 13:55:07;;;;;;;5.00;2.90;;;31.40;55.80;;;;;;5021580;28;20834;-46
2022/05/23 13:57:39;;;;;;;2.83;2.50;;;31.00;55.70;;;;;;5034474;28;20616;-46
2022/05/23 14:00:18;;;;;;;4.17;3.07;;;30.80;57.10;;;;;;5037375;28;20428;-46
2022/05/23 14:02:51;;;;;;;4.33;2.73;;;30.50;56.30;;;;;;5038091;28;20398;-47
2022/05/23 14:05:17;;;;;;;5.50;2.60;;;30.50;55.90;;;;;;5054680;28;20769;-47
2022/05/23 14:07:43;;;;;;;4.50;2.77;;;30.80;55.00;;;;;;5053845;28;20404;-47
2022/05/23 14:10:13;;;;;;;6.33;2.47;;;31.10;53.90;;;;;;5035647;28;20448;-47